sensor_id;sensor_type;location;lat;lon;timestamp;temperature;humidity
15969;DHT22;8085;53.472;9.794;2022-12-11T00:01:54;-1.30;99.90
15969;DHT22;8085;53.472;9.794;2022-12-11T00:04:21;-1.30;99.70
15969;DHT22;8085;53.472;9.794;2022-12-11T00:06:48;-1.20;99.90
15969;DHT22;8085;53.472;9.794;2022-12-11T00:09:15;-1.20;99.90
15969;DHT22;8085;53.472;9.794;2022-12-11T00:11:42;-1.20;99.90
15969;DHT22;8085;53.472;9.794;2022-12-11T00:14:09;-1.20;99.90
15969;DHT22;8085;53.472;9.794;2022-12-11T00:16:37;-1.30;99.90
15969;DHT22;8085;53.472;9.794;2022-12-11T00:19:05;-1.40;99.90
15969;DHT22;8085;53.472;9.794;2022-12-11T00:21:32;-1.30;99.90
15969;DHT22;8085;53.472;9.794;2022-12-11T00:23:59;-1.40;99.90
15969;DHT22;8085;53.472;9.794;2022-12-11T00:26:26;-1.40;99.90
15969;DHT22;8085;53.472;9.794;2022-12-11T00:28:54;-1.40;99.90
15969;DHT22;8085;53.472;9.794;2022-12-11T00:31:22;-1.50;99.90
15969;DHT22;8085;53.472;9.794;2022-12-11T00:33:51;-1.50;99.90
15969;DHT22;8085;53.472;9.794;2022-12-11T00:36:19;-1.50;99.90
15969;DHT22;8085;53.472;9.794;2022-12-11T00:38:47;-1.60;99.90
15969;DHT22;8085;53.472;9.794;2022-12-11T00:41:14;-1.60;99.90
15969;DHT22;8085;53.472;9.794;2022-12-11T00:43:41;-1.60;99.90
15969;DHT22;8085;53.472;9.794;2022-12-11T00:46:09;-1.60;99.90
15969;DHT22;8085;53.472;9.794;2022-12-11T00:48:36;-1.60;99.90
15969;DHT22;8085;53.472;9.794;2022-12-11T00:51:05;-1.60;99.90
15969;DHT22;8085;53.472;9.794;2022-12-11T00:53:32;-1.60;99.90
15969;DHT22;8085;53.472;9.794;2022-12-11T00:55:59;-1.60;99.90
15969;DHT22;8085;53.472;9.794;2022-12-11T00:58:26;-1.60;99.90
15969;DHT22;8085;53.472;9.794;2022-12-11T01:00:53;-1.50;99.90
15969;DHT22;8085;53.472;9.794;2022-12-11T01:03:20;-1.60;99.90
15969;DHT22;8085;53.472;9.794;2022-12-11T01:05:51;-1.50;99.90
15969;DHT22;8085;53.472;9.794;2022-12-11T01:08:20;-1.60;99.90
15969;DHT22;8085;53.472;9.794;2022-12-11T01:10:47;-1.60;99.90
15969;DHT22;8085;53.472;9.794;2022-12-11T01:13:14;-1.60;99.90
15969;DHT22;8085;53.472;9.794;2022-12-11T01:15:43;-1.60;99.90
15969;DHT22;8085;53.472;9.794;2022-12-11T01:18:12;-1.60;99.90
15969;DHT22;8085;53.472;9.794;2022-12-11T01:20:41;-1.60;99.90
15969;DHT22;8085;53.472;9.794;2022-12-11T01:23:10;-1.60;99.90
15969;DHT22;8085;53.472;9.794;2022-12-11T01:25:39;-1.60;99.90
15969;DHT22;8085;53.472;9.794;2022-12-11T01:28:07;-1.60;99.90
15969;DHT22;8085;53.472;9.794;2022-12-11T01:30:34;-1.70;99.90
15969;DHT22;8085;53.472;9.794;2022-12-11T01:33:01;-1.70;99.90
15969;DHT22;8085;53.472;9.794;2022-12-11T01:35:28;-1.70;99.90
15969;DHT22;8085;53.472;9.794;2022-12-11T01:37:55;-1.70;99.90
15969;DHT22;8085;53.472;9.794;2022-12-11T01:40:22;-1.70;99.90
15969;DHT22;8085;53.472;9.794;2022-12-11T01:42:52;-1.70;99.90
15969;DHT22;8085;53.472;9.794;2022-12-11T01:45:29;-1.70;99.90
15969;DHT22;8085;53.472;9.794;2022-12-11T01:48:04;-1.70;99.90
15969;DHT22;8085;53.472;9.794;2022-12-11T01:50:35;-1.70;99.90
15969;DHT22;8085;53.472;9.794;2022-12-11T01:53:05;-1.70;99.90
15969;DHT22;8085;53.472;9.794;2022-12-11T01:55:33;-1.70;99.90
15969;DHT22;8085;53.472;9.794;2022-12-11T01:58:02;-1.70;99.90
15969;DHT22;8085;53.472;9.794;2022-12-11T02:00:29;-1.60;99.90
15969;DHT22;8085;53.472;9.794;2022-12-11T02:02:56;-1.60;99.90
15969;DHT22;8085;53.472;9.794;2022-12-11T02:05:23;-1.60;99.90
15969;DHT22;8085;53.472;9.794;2022-12-11T02:07:52;-1.60;99.90
15969;DHT22;8085;53.472;9.794;2022-12-11T02:10:22;-1.70;99.90
15969;DHT22;8085;53.472;9.794;2022-12-11T02:12:54;-1.70;99.90
15969;DHT22;8085;53.472;9.794;2022-12-11T02:15:30;-1.70;99.90
15969;DHT22;8085;53.472;9.794;2022-12-11T02:18:06;-1.70;99.90
15969;DHT22;8085;53.472;9.794;2022-12-11T02:20:36;-1.70;99.90
15969;DHT22;8085;53.472;9.794;2022-12-11T02:23:31;-1.70;99.90
15969;DHT22;8085;53.472;9.794;2022-12-11T02:26:10;-1.60;99.90
15969;DHT22;8085;53.472;9.794;2022-12-11T02:28:43;-1.70;99.90
15969;DHT22;8085;53.472;9.794;2022-12-11T02:31:15;-1.70;99.90
15969;DHT22;8085;53.472;9.794;2022-12-11T02:33:52;-1.70;99.90
15969;DHT22;8085;53.472;9.794;2022-12-11T02:36:23;-1.70;99.90
15969;DHT22;8085;53.472;9.794;2022-12-11T02:38:52;-1.70;99.90
15969;DHT22;8085;53.472;9.794;2022-12-11T02:41:21;-1.70;99.90
15969;DHT22;8085;53.472;9.794;2022-12-11T02:43:51;-1.60;99.90
15969;DHT22;8085;53.472;9.794;2022-12-11T02:46:19;-1.70;99.90
15969;DHT22;8085;53.472;9.794;2022-12-11T02:48:48;-1.70;99.90
15969;DHT22;8085;53.472;9.794;2022-12-11T02:51:22;-1.70;99.90
15969;DHT22;8085;53.472;9.794;2022-12-11T02:53:50;-1.70;99.90
15969;DHT22;8085;53.472;9.794;2022-12-11T02:56:24;-1.70;99.90
15969;DHT22;8085;53.472;9.794;2022-12-11T02:58:58;-1.70;99.90
15969;DHT22;8085;53.472;9.794;2022-12-11T03:01:25;-1.70;99.90
15969;DHT22;8085;53.472;9.794;2022-12-11T03:03:53;-1.70;99.90
15969;DHT22;8085;53.472;9.794;2022-12-11T03:06:23;-1.70;99.90
15969;DHT22;8085;53.472;9.794;2022-12-11T03:08:52;-1.70;99.90
15969;DHT22;8085;53.472;9.794;2022-12-11T03:11:19;-1.70;99.90
15969;DHT22;8085;53.472;9.794;2022-12-11T03:13:46;-1.70;99.90
15969;DHT22;8085;53.472;9.794;2022-12-11T03:16:20;-1.70;99.90
15969;DHT22;8085;53.472;9.794;2022-12-11T03:18:55;-1.70;99.90
15969;DHT22;8085;53.472;9.794;2022-12-11T03:21:29;-1.70;99.90
15969;DHT22;8085;53.472;9.794;2022-12-11T03:24:02;-1.70;99.90
15969;DHT22;8085;53.472;9.794;2022-12-11T03:26:33;-1.70;99.90
15969;DHT22;8085;53.472;9.794;2022-12-11T03:29:04;-1.70;99.90
15969;DHT22;8085;53.472;9.794;2022-12-11T03:31:39;-1.70;99.90
15969;DHT22;8085;53.472;9.794;2022-12-11T03:34:10;-1.70;99.90
15969;DHT22;8085;53.472;9.794;2022-12-11T03:36:39;-1.70;99.90
15969;DHT22;8085;53.472;9.794;2022-12-11T03:39:11;-1.70;99.90
15969;DHT22;8085;53.472;9.794;2022-12-11T03:41:39;-1.70;99.90
15969;DHT22;8085;53.472;9.794;2022-12-11T03:44:07;-1.70;99.90
15969;DHT22;8085;53.472;9.794;2022-12-11T03:46:37;-1.70;99.90
15969;DHT22;8085;53.472;9.794;2022-12-11T03:49:08;-1.70;99.90
15969;DHT22;8085;53.472;9.794;2022-12-11T03:51:37;-1.70;99.90
15969;DHT22;8085;53.472;9.794;2022-12-11T03:54:04;-1.70;99.90
15969;DHT22;8085;53.472;9.794;2022-12-11T03:56:34;-1.70;99.90
15969;DHT22;8085;53.472;9.794;2022-12-11T03:59:01;-1.70;99.90
15969;DHT22;8085;53.472;9.794;2022-12-11T04:01:29;-1.70;99.90
15969;DHT22;8085;53.472;9.794;2022-12-11T04:03:57;-1.70;99.90
15969;DHT22;8085;53.472;9.794;2022-12-11T04:06:24;-1.70;99.90
15969;DHT22;8085;53.472;9.794;2022-12-11T04:08:51;-1.60;99.90
15969;DHT22;8085;53.472;9.794;2022-12-11T04:11:18;-1.60;99.90
15969;DHT22;8085;53.472;9.794;2022-12-11T04:14:00;-1.60;99.90
15969;DHT22;8085;53.472;9.794;2022-12-11T04:16:44;-1.60;99.90
15969;DHT22;8085;53.472;9.794;2022-12-11T04:19:12;-1.60;99.90
15969;DHT22;8085;53.472;9.794;2022-12-11T04:21:57;-1.60;99.90
15969;DHT22;8085;53.472;9.794;2022-12-11T04:24:38;-1.60;99.90
15969;DHT22;8085;53.472;9.794;2022-12-11T04:27:05;-1.60;99.90
15969;DHT22;8085;53.472;9.794;2022-12-11T04:29:31;-1.60;99.90
15969;DHT22;8085;53.472;9.794;2022-12-11T04:31:58;-1.60;99.90
15969;DHT22;8085;53.472;9.794;2022-12-11T04:34:26;-1.60;99.90
15969;DHT22;8085;53.472;9.794;2022-12-11T04:36:53;-1.70;99.90
15969;DHT22;8085;53.472;9.794;2022-12-11T04:39:20;-1.60;99.90
15969;DHT22;8085;53.472;9.794;2022-12-11T04:41:47;-1.60;99.90
15969;DHT22;8085;53.472;9.794;2022-12-11T04:44:14;-1.60;99.90
15969;DHT22;8085;53.472;9.794;2022-12-11T04:46:41;-1.60;99.90
15969;DHT22;8085;53.472;9.794;2022-12-11T04:49:09;-1.60;99.90
15969;DHT22;8085;53.472;9.794;2022-12-11T04:51:37;-1.60;99.90
15969;DHT22;8085;53.472;9.794;2022-12-11T04:54:04;-1.60;99.90
15969;DHT22;8085;53.472;9.794;2022-12-11T04:56:31;-1.50;99.90
15969;DHT22;8085;53.472;9.794;2022-12-11T04:58:57;-1.60;99.90
15969;DHT22;8085;53.472;9.794;2022-12-11T05:01:24;-1.50;99.90
15969;DHT22;8085;53.472;9.794;2022-12-11T05:03:51;-1.60;99.90
15969;DHT22;8085;53.472;9.794;2022-12-11T05:06:18;-1.60;99.90
15969;DHT22;8085;53.472;9.794;2022-12-11T05:08:46;-1.60;99.80
15969;DHT22;8085;53.472;9.794;2022-12-11T05:11:14;-1.60;98.90
15969;DHT22;8085;53.472;9.794;2022-12-11T05:13:42;-1.50;98.60
15969;DHT22;8085;53.472;9.794;2022-12-11T05:16:11;-1.50;98.30
15969;DHT22;8085;53.472;9.794;2022-12-11T05:18:38;-1.60;96.10
15969;DHT22;8085;53.472;9.794;2022-12-11T05:21:07;-1.60;93.10
15969;DHT22;8085;53.472;9.794;2022-12-11T05:23:34;-1.60;87.30
15969;DHT22;8085;53.472;9.794;2022-12-11T05:26:04;-1.60;83.60
15969;DHT22;8085;53.472;9.794;2022-12-11T05:28:33;-1.60;83.90
15969;DHT22;8085;53.472;9.794;2022-12-11T05:31:03;-1.60;84.20
15969;DHT22;8085;53.472;9.794;2022-12-11T05:33:30;-1.60;87.50
15969;DHT22;8085;53.472;9.794;2022-12-11T05:35:58;-1.50;87.00
15969;DHT22;8085;53.472;9.794;2022-12-11T05:38:25;-1.60;81.70
15969;DHT22;8085;53.472;9.794;2022-12-11T05:40:56;-1.50;77.40
15969;DHT22;8085;53.472;9.794;2022-12-11T05:43:26;-1.50;77.90
15969;DHT22;8085;53.472;9.794;2022-12-11T05:45:53;-1.50;76.80
15969;DHT22;8085;53.472;9.794;2022-12-11T05:48:20;-1.50;74.70
15969;DHT22;8085;53.472;9.794;2022-12-11T05:50:56;-1.50;74.40
15969;DHT22;8085;53.472;9.794;2022-12-11T05:53:23;-1.50;75.20
15969;DHT22;8085;53.472;9.794;2022-12-11T05:55:51;-1.50;75.10
15969;DHT22;8085;53.472;9.794;2022-12-11T05:58:18;-1.50;72.10
15969;DHT22;8085;53.472;9.794;2022-12-11T06:00:46;-1.50;73.80
15969;DHT22;8085;53.472;9.794;2022-12-11T06:03:14;-1.50;73.80
15969;DHT22;8085;53.472;9.794;2022-12-11T06:05:42;-1.50;64.50
15969;DHT22;8085;53.472;9.794;2022-12-11T06:08:09;-1.50;45.60
15969;DHT22;8085;53.472;9.794;2022-12-11T06:10:35;-1.50;39.70
15969;DHT22;8085;53.472;9.794;2022-12-11T06:13:02;-1.50;38.50
15969;DHT22;8085;53.472;9.794;2022-12-11T06:15:29;-1.50;39.50
15969;DHT22;8085;53.472;9.794;2022-12-11T06:17:58;-1.50;43.00
15969;DHT22;8085;53.472;9.794;2022-12-11T06:20:24;-1.50;42.90
15969;DHT22;8085;53.472;9.794;2022-12-11T06:22:51;-1.50;44.10
15969;DHT22;8085;53.472;9.794;2022-12-11T06:25:18;-1.50;46.00
15969;DHT22;8085;53.472;9.794;2022-12-11T06:27:45;-1.50;49.90
15969;DHT22;8085;53.472;9.794;2022-12-11T06:30:12;-1.50;51.90
15969;DHT22;8085;53.472;9.794;2022-12-11T06:32:39;-1.50;52.40
15969;DHT22;8085;53.472;9.794;2022-12-11T06:35:08;-1.50;53.30
15969;DHT22;8085;53.472;9.794;2022-12-11T06:37:36;-1.60;54.50
15969;DHT22;8085;53.472;9.794;2022-12-11T06:40:04;-1.60;55.70
15969;DHT22;8085;53.472;9.794;2022-12-11T06:42:31;-1.60;56.70
15969;DHT22;8085;53.472;9.794;2022-12-11T06:44:58;-1.70;58.90
15969;DHT22;8085;53.472;9.794;2022-12-11T06:47:25;-1.70;60.30
15969;DHT22;8085;53.472;9.794;2022-12-11T06:49:52;-1.70;62.30
15969;DHT22;8085;53.472;9.794;2022-12-11T06:52:21;-1.70;64.30
15969;DHT22;8085;53.472;9.794;2022-12-11T06:54:48;-1.80;67.10
15969;DHT22;8085;53.472;9.794;2022-12-11T06:57:15;-1.80;69.40
15969;DHT22;8085;53.472;9.794;2022-12-11T06:59:42;-1.90;71.10
15969;DHT22;8085;53.472;9.794;2022-12-11T07:02:10;-1.90;71.50
15969;DHT22;8085;53.472;9.794;2022-12-11T07:04:38;-1.90;73.20
15969;DHT22;8085;53.472;9.794;2022-12-11T07:07:05;-2.00;73.80
15969;DHT22;8085;53.472;9.794;2022-12-11T07:09:34;-2.00;75.30
15969;DHT22;8085;53.472;9.794;2022-12-11T07:12:02;-2.10;78.30
15969;DHT22;8085;53.472;9.794;2022-12-11T07:14:29;-2.10;80.70
15969;DHT22;8085;53.472;9.794;2022-12-11T07:16:56;-2.20;83.10
15969;DHT22;8085;53.472;9.794;2022-12-11T07:19:23;-2.20;84.00
15969;DHT22;8085;53.472;9.794;2022-12-11T07:21:50;-2.20;85.70
15969;DHT22;8085;53.472;9.794;2022-12-11T07:24:18;-2.30;86.80
15969;DHT22;8085;53.472;9.794;2022-12-11T07:26:46;-2.30;86.00
15969;DHT22;8085;53.472;9.794;2022-12-11T07:29:13;-2.30;86.50
15969;DHT22;8085;53.472;9.794;2022-12-11T07:31:39;-2.40;87.30
15969;DHT22;8085;53.472;9.794;2022-12-11T07:34:07;-2.40;88.40
15969;DHT22;8085;53.472;9.794;2022-12-11T07:36:34;-2.40;88.80
15969;DHT22;8085;53.472;9.794;2022-12-11T07:39:01;-2.40;89.20
15969;DHT22;8085;53.472;9.794;2022-12-11T07:41:27;-2.40;89.70
15969;DHT22;8085;53.472;9.794;2022-12-11T07:43:58;-2.40;89.50
15969;DHT22;8085;53.472;9.794;2022-12-11T07:46:28;-2.40;89.30
15969;DHT22;8085;53.472;9.794;2022-12-11T07:48:55;-2.40;89.30
15969;DHT22;8085;53.472;9.794;2022-12-11T07:51:23;-2.50;88.70
15969;DHT22;8085;53.472;9.794;2022-12-11T07:53:53;-2.50;89.80
15969;DHT22;8085;53.472;9.794;2022-12-11T07:56:21;-2.50;90.00
15969;DHT22;8085;53.472;9.794;2022-12-11T07:58:48;-2.50;90.30
15969;DHT22;8085;53.472;9.794;2022-12-11T08:01:17;-2.60;90.60
15969;DHT22;8085;53.472;9.794;2022-12-11T08:03:44;-2.60;91.40
15969;DHT22;8085;53.472;9.794;2022-12-11T08:06:12;-2.70;91.40
15969;DHT22;8085;53.472;9.794;2022-12-11T08:08:39;-2.70;91.70
15969;DHT22;8085;53.472;9.794;2022-12-11T08:11:08;-2.70;92.30
15969;DHT22;8085;53.472;9.794;2022-12-11T08:13:36;-2.70;92.80
15969;DHT22;8085;53.472;9.794;2022-12-11T08:16:04;-2.70;93.30
15969;DHT22;8085;53.472;9.794;2022-12-11T08:18:34;-2.70;93.90
15969;DHT22;8085;53.472;9.794;2022-12-11T08:21:04;-2.70;94.40
15969;DHT22;8085;53.472;9.794;2022-12-11T08:23:31;-2.70;94.90
15969;DHT22;8085;53.472;9.794;2022-12-11T08:25:58;-2.70;95.40
15969;DHT22;8085;53.472;9.794;2022-12-11T08:28:25;-2.70;95.80
15969;DHT22;8085;53.472;9.794;2022-12-11T08:30:51;-2.70;95.90
15969;DHT22;8085;53.472;9.794;2022-12-11T08:33:18;-2.80;96.10
15969;DHT22;8085;53.472;9.794;2022-12-11T08:35:46;-2.80;96.50
15969;DHT22;8085;53.472;9.794;2022-12-11T08:38:13;-2.70;97.00
15969;DHT22;8085;53.472;9.794;2022-12-11T08:40:40;-2.70;97.00
15969;DHT22;8085;53.472;9.794;2022-12-11T08:43:07;-2.70;96.20
15969;DHT22;8085;53.472;9.794;2022-12-11T08:45:34;-2.80;95.60
15969;DHT22;8085;53.472;9.794;2022-12-11T08:48:01;-2.80;95.70
15969;DHT22;8085;53.472;9.794;2022-12-11T08:50:27;-2.80;96.10
15969;DHT22;8085;53.472;9.794;2022-12-11T08:52:57;-2.80;96.40
15969;DHT22;8085;53.472;9.794;2022-12-11T08:55:23;-2.80;96.40
15969;DHT22;8085;53.472;9.794;2022-12-11T08:57:50;-2.80;96.80
15969;DHT22;8085;53.472;9.794;2022-12-11T09:00:17;-2.70;96.80
15969;DHT22;8085;53.472;9.794;2022-12-11T09:02:44;-2.80;96.50
15969;DHT22;8085;53.472;9.794;2022-12-11T09:05:11;-2.80;96.60
15969;DHT22;8085;53.472;9.794;2022-12-11T09:07:38;-2.70;97.20
15969;DHT22;8085;53.472;9.794;2022-12-11T09:10:07;-2.70;96.90
15969;DHT22;8085;53.472;9.794;2022-12-11T09:12:35;-2.70;96.40
15969;DHT22;8085;53.472;9.794;2022-12-11T09:15:03;-2.70;96.10
15969;DHT22;8085;53.472;9.794;2022-12-11T09:17:30;-2.70;95.60
15969;DHT22;8085;53.472;9.794;2022-12-11T09:19:56;-2.70;94.60
15969;DHT22;8085;53.472;9.794;2022-12-11T09:22:24;-2.70;94.10
15969;DHT22;8085;53.472;9.794;2022-12-11T09:24:51;-2.60;93.90
15969;DHT22;8085;53.472;9.794;2022-12-11T09:27:19;-2.60;94.00
15969;DHT22;8085;53.472;9.794;2022-12-11T09:29:46;-2.60;93.90
15969;DHT22;8085;53.472;9.794;2022-12-11T09:32:13;-2.50;92.90
15969;DHT22;8085;53.472;9.794;2022-12-11T09:34:40;-2.50;90.80
15969;DHT22;8085;53.472;9.794;2022-12-11T09:37:07;-2.50;88.40
15969;DHT22;8085;53.472;9.794;2022-12-11T09:39:34;-2.50;85.20
15969;DHT22;8085;53.472;9.794;2022-12-11T09:42:03;-2.50;82.60
15969;DHT22;8085;53.472;9.794;2022-12-11T09:44:40;-2.40;83.60
15969;DHT22;8085;53.472;9.794;2022-12-11T09:47:15;-2.40;77.90
15969;DHT22;8085;53.472;9.794;2022-12-11T09:49:45;-2.40;69.10
15969;DHT22;8085;53.472;9.794;2022-12-11T09:52:15;-2.40;67.30
15969;DHT22;8085;53.472;9.794;2022-12-11T09:54:48;-2.30;68.70
15969;DHT22;8085;53.472;9.794;2022-12-11T09:57:39;-2.30;67.30
15969;DHT22;8085;53.472;9.794;2022-12-11T10:00:18;-2.20;61.70
15969;DHT22;8085;53.472;9.794;2022-12-11T10:02:58;-2.20;59.90
15969;DHT22;8085;53.472;9.794;2022-12-11T10:05:33;-2.20;59.30
15969;DHT22;8085;53.472;9.794;2022-12-11T10:08:07;-2.20;54.70
15969;DHT22;8085;53.472;9.794;2022-12-11T10:10:42;-2.10;54.90
15969;DHT22;8085;53.472;9.794;2022-12-11T10:13:16;-2.10;54.40
15969;DHT22;8085;53.472;9.794;2022-12-11T10:15:51;-2.10;41.50
15969;DHT22;8085;53.472;9.794;2022-12-11T10:18:22;-2.10;42.50
15969;DHT22;8085;53.472;9.794;2022-12-11T10:20:51;-2.00;45.50
15969;DHT22;8085;53.472;9.794;2022-12-11T10:23:21;-2.00;43.60
15969;DHT22;8085;53.472;9.794;2022-12-11T10:25:53;-2.00;41.40
15969;DHT22;8085;53.472;9.794;2022-12-11T10:28:22;-2.00;36.00
15969;DHT22;8085;53.472;9.794;2022-12-11T10:30:55;-2.00;38.60
15969;DHT22;8085;53.472;9.794;2022-12-11T10:33:28;-2.00;36.50
15969;DHT22;8085;53.472;9.794;2022-12-11T10:35:57;-1.90;38.30
15969;DHT22;8085;53.472;9.794;2022-12-11T10:38:27;-1.90;33.80
15969;DHT22;8085;53.472;9.794;2022-12-11T10:40:57;-1.90;36.00
15969;DHT22;8085;53.472;9.794;2022-12-11T10:43:34;-1.80;33.90
15969;DHT22;8085;53.472;9.794;2022-12-11T10:46:04;-1.80;28.60
15969;DHT22;8085;53.472;9.794;2022-12-11T10:48:31;-1.80;27.70
15969;DHT22;8085;53.472;9.794;2022-12-11T10:51:00;-1.70;31.40
15969;DHT22;8085;53.472;9.794;2022-12-11T10:53:28;-1.70;28.80
15969;DHT22;8085;53.472;9.794;2022-12-11T10:55:56;-1.70;30.30
15969;DHT22;8085;53.472;9.794;2022-12-11T10:58:25;-1.70;32.60
15969;DHT22;8085;53.472;9.794;2022-12-11T11:01:04;-1.70;17.00
15969;DHT22;8085;53.472;9.794;2022-12-11T11:03:32;-1.70;19.60
15969;DHT22;8085;53.472;9.794;2022-12-11T11:06:13;-1.70;19.70
15969;DHT22;8085;53.472;9.794;2022-12-11T11:08:42;-1.60;23.70
15969;DHT22;8085;53.472;9.794;2022-12-11T11:11:21;-1.60;18.60
15969;DHT22;8085;53.472;9.794;2022-12-11T11:13:48;-1.50;18.10
15969;DHT22;8085;53.472;9.794;2022-12-11T11:16:19;-1.50;17.80
15969;DHT22;8085;53.472;9.794;2022-12-11T11:18:51;-1.40;21.30
15969;DHT22;8085;53.472;9.794;2022-12-11T11:21:21;-1.30;19.70
15969;DHT22;8085;53.472;9.794;2022-12-11T11:23:49;-1.30;17.50
15969;DHT22;8085;53.472;9.794;2022-12-11T11:26:16;-1.20;14.60
15969;DHT22;8085;53.472;9.794;2022-12-11T11:28:47;-1.10;14.60
15969;DHT22;8085;53.472;9.794;2022-12-11T11:31:17;-1.00;6.30
15969;DHT22;8085;53.472;9.794;2022-12-11T11:33:51;-1.10;1.40
15969;DHT22;8085;53.472;9.794;2022-12-11T11:36:22;-1.10;1.00
15969;DHT22;8085;53.472;9.794;2022-12-11T11:39:02;-1.00;1.00
15969;DHT22;8085;53.472;9.794;2022-12-11T11:41:34;-0.90;1.70
15969;DHT22;8085;53.472;9.794;2022-12-11T11:44:05;-0.90;1.00
15969;DHT22;8085;53.472;9.794;2022-12-11T11:46:36;-0.90;1.00
15969;DHT22;8085;53.472;9.794;2022-12-11T11:49:09;-0.90;1.00
15969;DHT22;8085;53.472;9.794;2022-12-11T11:51:44;-0.80;1.00
15969;DHT22;8085;53.472;9.794;2022-12-11T11:54:21;-0.80;1.00
15969;DHT22;8085;53.472;9.794;2022-12-11T11:56:51;-0.70;1.00
15969;DHT22;8085;53.472;9.794;2022-12-11T11:59:23;-0.40;1.00
15969;DHT22;8085;53.472;9.794;2022-12-11T12:01:55;-0.10;1.00
15969;DHT22;8085;53.472;9.794;2022-12-11T12:04:22;0.40;1.00
15969;DHT22;8085;53.472;9.794;2022-12-11T12:09:49;0.80;1.00
15969;DHT22;8085;53.472;9.794;2022-12-11T12:12:28;1.20;99.90
15969;DHT22;8085;53.472;9.794;2022-12-11T12:17:52;1.70;99.90
15969;DHT22;8085;53.472;9.794;2022-12-11T12:20:28;1.80;1.00
15969;DHT22;8085;53.472;9.794;2022-12-11T12:23:05;1.80;1.00
15969;DHT22;8085;53.472;9.794;2022-12-11T12:25:41;2.00;1.00
15969;DHT22;8085;53.472;9.794;2022-12-11T12:28:17;2.00;1.00
15969;DHT22;8085;53.472;9.794;2022-12-11T12:30:55;1.80;1.00
15969;DHT22;8085;53.472;9.794;2022-12-11T12:33:40;1.60;99.90
15969;DHT22;8085;53.472;9.794;2022-12-11T12:36:16;1.60;99.90
15969;DHT22;8085;53.472;9.794;2022-12-11T12:38:52;1.80;99.90
15969;DHT22;8085;53.472;9.794;2022-12-11T12:41:22;1.70;99.90
15969;DHT22;8085;53.472;9.794;2022-12-11T12:44:01;1.50;99.90
15969;DHT22;8085;53.472;9.794;2022-12-11T12:46:44;1.40;99.90
15969;DHT22;8085;53.472;9.794;2022-12-11T12:49:24;1.30;1.00
15969;DHT22;8085;53.472;9.794;2022-12-11T12:51:53;1.10;1.00
15969;DHT22;8085;53.472;9.794;2022-12-11T12:54:21;0.90;99.90
15969;DHT22;8085;53.472;9.794;2022-12-11T12:56:48;0.70;99.90
15969;DHT22;8085;53.472;9.794;2022-12-11T12:59:20;0.60;1.00
15969;DHT22;8085;53.472;9.794;2022-12-11T13:01:49;0.50;1.00
15969;DHT22;8085;53.472;9.794;2022-12-11T13:04:35;0.40;75.30
15969;DHT22;8085;53.472;9.794;2022-12-11T13:07:15;0.30;99.90
15969;DHT22;8085;53.472;9.794;2022-12-11T13:09:42;0.20;99.90
15969;DHT22;8085;53.472;9.794;2022-12-11T13:12:13;0.10;99.90
15969;DHT22;8085;53.472;9.794;2022-12-11T13:14:41;0.00;1.00
15969;DHT22;8085;53.472;9.794;2022-12-11T13:17:33;-0.10;1.00
15969;DHT22;8085;53.472;9.794;2022-12-11T13:20:16;-0.10;1.00
15969;DHT22;8085;53.472;9.794;2022-12-11T13:25:31;0.10;1.00
15969;DHT22;8085;53.472;9.794;2022-12-11T13:28:05;0.20;99.90
15969;DHT22;8085;53.472;9.794;2022-12-11T13:30:33;0.20;99.90
15969;DHT22;8085;53.472;9.794;2022-12-11T13:33:02;0.20;1.00
15969;DHT22;8085;53.472;9.794;2022-12-11T13:35:33;0.20;1.00
15969;DHT22;8085;53.472;9.794;2022-12-11T13:38:05;0.10;1.00
15969;DHT22;8085;53.472;9.794;2022-12-11T13:40:37;0.00;1.00
15969;DHT22;8085;53.472;9.794;2022-12-11T13:43:08;-0.10;1.00
15969;DHT22;8085;53.472;9.794;2022-12-11T13:45:45;-0.20;1.00
15969;DHT22;8085;53.472;9.794;2022-12-11T13:48:18;-0.30;1.00
15969;DHT22;8085;53.472;9.794;2022-12-11T13:50:49;-0.40;1.00
15969;DHT22;8085;53.472;9.794;2022-12-11T13:53:28;-0.60;1.00
15969;DHT22;8085;53.472;9.794;2022-12-11T13:55:56;-0.60;1.00
15969;DHT22;8085;53.472;9.794;2022-12-11T13:58:23;-0.70;1.00
15969;DHT22;8085;53.472;9.794;2022-12-11T14:00:54;-0.70;1.00
15969;DHT22;8085;53.472;9.794;2022-12-11T14:03:23;-0.70;1.00
15969;DHT22;8085;53.472;9.794;2022-12-11T14:05:51;-0.80;1.00
15969;DHT22;8085;53.472;9.794;2022-12-11T14:08:21;-0.80;1.00
15969;DHT22;8085;53.472;9.794;2022-12-11T14:10:52;-0.80;1.00
15969;DHT22;8085;53.472;9.794;2022-12-11T14:13:22;-0.90;1.00
15969;DHT22;8085;53.472;9.794;2022-12-11T14:15:49;-0.90;1.00
15969;DHT22;8085;53.472;9.794;2022-12-11T14:18:20;-0.90;1.00
15969;DHT22;8085;53.472;9.794;2022-12-11T14:20:54;-0.90;1.00
15969;DHT22;8085;53.472;9.794;2022-12-11T14:23:24;-0.90;1.00
15969;DHT22;8085;53.472;9.794;2022-12-11T14:25:52;-0.90;1.00
15969;DHT22;8085;53.472;9.794;2022-12-11T14:28:20;-0.80;1.00
15969;DHT22;8085;53.472;9.794;2022-12-11T14:30:50;-0.80;1.00
15969;DHT22;8085;53.472;9.794;2022-12-11T14:33:18;-0.80;1.00
15969;DHT22;8085;53.472;9.794;2022-12-11T14:35:47;-0.80;1.00
15969;DHT22;8085;53.472;9.794;2022-12-11T14:38:18;-0.70;1.00
15969;DHT22;8085;53.472;9.794;2022-12-11T14:40:50;-0.70;1.00
15969;DHT22;8085;53.472;9.794;2022-12-11T14:43:21;-0.80;1.00
15969;DHT22;8085;53.472;9.794;2022-12-11T14:45:49;-0.80;1.00
15969;DHT22;8085;53.472;9.794;2022-12-11T14:48:21;-0.80;1.00
15969;DHT22;8085;53.472;9.794;2022-12-11T14:50:51;-0.80;1.00
15969;DHT22;8085;53.472;9.794;2022-12-11T14:53:23;-0.80;1.00
15969;DHT22;8085;53.472;9.794;2022-12-11T14:55:52;-0.90;1.00
15969;DHT22;8085;53.472;9.794;2022-12-11T14:58:20;-0.90;1.00
15969;DHT22;8085;53.472;9.794;2022-12-11T15:00:55;-1.00;1.00
15969;DHT22;8085;53.472;9.794;2022-12-11T15:03:28;-1.00;1.00
15969;DHT22;8085;53.472;9.794;2022-12-11T15:05:57;-1.10;1.00
15969;DHT22;8085;53.472;9.794;2022-12-11T15:08:27;-1.20;1.00
15969;DHT22;8085;53.472;9.794;2022-12-11T15:11:05;-1.20;1.00
15969;DHT22;8085;53.472;9.794;2022-12-11T15:13:35;-1.30;1.00
15969;DHT22;8085;53.472;9.794;2022-12-11T15:16:04;-1.40;1.00
15969;DHT22;8085;53.472;9.794;2022-12-11T15:18:35;-1.40;1.00
15969;DHT22;8085;53.472;9.794;2022-12-11T15:21:04;-1.40;1.00
15969;DHT22;8085;53.472;9.794;2022-12-11T15:23:49;-1.40;1.00
15969;DHT22;8085;53.472;9.794;2022-12-11T15:26:17;-1.40;1.00
15969;DHT22;8085;53.472;9.794;2022-12-11T15:28:44;-1.50;1.00
15969;DHT22;8085;53.472;9.794;2022-12-11T15:31:23;-1.50;1.00
15969;DHT22;8085;53.472;9.794;2022-12-11T15:33:50;-1.50;1.00
15969;DHT22;8085;53.472;9.794;2022-12-11T15:36:28;-1.60;1.00
15969;DHT22;8085;53.472;9.794;2022-12-11T15:38:57;-1.70;1.00
15969;DHT22;8085;53.472;9.794;2022-12-11T15:41:24;-1.70;1.00
15969;DHT22;8085;53.472;9.794;2022-12-11T15:43:52;-1.70;1.00
15969;DHT22;8085;53.472;9.794;2022-12-11T15:46:20;-1.80;1.00
15969;DHT22;8085;53.472;9.794;2022-12-11T15:48:47;-1.80;1.00
15969;DHT22;8085;53.472;9.794;2022-12-11T15:51:14;-1.80;1.00
15969;DHT22;8085;53.472;9.794;2022-12-11T15:53:41;-1.80;1.00
15969;DHT22;8085;53.472;9.794;2022-12-11T15:56:12;-1.90;1.00
15969;DHT22;8085;53.472;9.794;2022-12-11T15:58:39;-1.90;2.10
15969;DHT22;8085;53.472;9.794;2022-12-11T16:01:07;-1.90;8.60
15969;DHT22;8085;53.472;9.794;2022-12-11T16:03:34;-1.90;12.90
15969;DHT22;8085;53.472;9.794;2022-12-11T16:06:01;-2.00;17.20
15969;DHT22;8085;53.472;9.794;2022-12-11T16:08:27;-2.00;19.10
15969;DHT22;8085;53.472;9.794;2022-12-11T16:10:54;-2.00;19.60
15969;DHT22;8085;53.472;9.794;2022-12-11T16:13:23;-2.00;21.60
15969;DHT22;8085;53.472;9.794;2022-12-11T16:15:50;-2.10;25.50